Time;durP1;ratioP1;P1;durP2;ratioP2;P2;SDS_P1;SDS_P2;PMS_P1;PMS_P2;Temp;Humidity;BMP_temperature;BMP_pressure;BME280_temperature;BME280_humidity;BME280_pressure;Samples;Min_cycle;Max_cycle;Signal;HPM_P1;HPM_P2
2021/12/01 00:00:09;;;;;;;5.40;0.90;;;11.00;82.10;;;;;;5116832;27;20023;-62
2021/12/01 00:02:35;;;;;;;6.95;1.13;;;11.00;82.40;;;;;;5097951;28;20114;-62
2021/12/01 00:05:00;;;;;;;5.60;1.00;;;10.90;82.50;;;;;;5097729;28;20100;-62
2021/12/01 00:07:26;;;;;;;5.82;1.33;;;11.00;82.80;;;;;;5099203;28;20056;-62
2021/12/01 00:09:52;;;;;;;5.70;1.30;;;11.00;82.80;;;;;;5098353;28;20024;-62
2021/12/01 00:12:18;;;;;;;5.82;1.73;;;11.00;82.70;;;;;;5098636;28;20055;-62
2021/12/01 00:14:44;;;;;;;9.77;2.92;;;11.00;83.70;;;;;;5107025;28;20027;-62
2021/12/01 00:17:12;;;;;;;9.32;2.03;;;11.00;83.10;;;;;;5112425;28;20036;-62
2021/12/01 00:19:38;;;;;;;6.72;1.50;;;10.90;83.30;;;;;;5110829;28;20106;-62
2021/12/01 00:22:04;;;;;;;11.18;2.10;;;11.00;83.40;;;;;;5100842;28;20081;-62
2021/12/01 00:24:30;;;;;;;7.70;2.25;;;10.90;83.50;;;;;;5098644;28;20024;-62
2021/12/01 00:26:56;;;;;;;6.93;2.13;;;11.00;83.80;;;;;;5097680;28;20508;-62
2021/12/01 00:29:21;;;;;;;8.93;2.42;;;11.00;83.90;;;;;;5094538;28;20442;-62
2021/12/01 00:31:47;;;;;;;9.75;2.40;;;11.00;84.10;;;;;;5098145;28;20038;-62
2021/12/01 00:34:13;;;;;;;7.60;2.08;;;10.90;84.20;;;;;;5098105;28;20522;-62
2021/12/01 00:36:39;;;;;;;8.27;2.42;;;11.00;84.40;;;;;;5097717;28;20059;-62
2021/12/01 00:39:05;;;;;;;6.85;1.83;;;11.00;84.60;;;;;;5098418;28;20394;-62
2021/12/01 00:41:31;;;;;;;9.68;2.20;;;11.00;84.70;;;;;;5093652;28;20039;-62
2021/12/01 00:43:57;;;;;;;6.88;2.10;;;11.00;84.70;;;;;;5097631;28;20547;-62
2021/12/01 00:46:24;;;;;;;6.20;2.55;;;11.00;84.80;;;;;;5097965;28;20020;-62
2021/12/01 00:48:50;;;;;;;7.13;2.63;;;11.00;85.20;;;;;;5104479;28;20092;-62
2021/12/01 00:51:16;;;;;;;12.07;2.50;;;11.00;85.20;;;;;;5107222;28;20027;-62
2021/12/01 00:53:43;;;;;;;8.10;2.40;;;11.00;85.20;;;;;;5095302;28;20403;-62
2021/12/01 00:56:10;;;;;;;10.15;2.60;;;11.00;85.60;;;;;;5094916;28;20035;-62
2021/12/01 00:58:36;;;;;;;8.85;2.53;;;11.00;85.90;;;;;;5098119;28;20036;-62
2021/12/01 01:01:03;;;;;;;13.55;2.95;;;11.00;86.00;;;;;;5097232;28;20032;-62
2021/12/01 01:03:31;;;;;;;9.70;2.60;;;11.00;86.10;;;;;;5102010;28;20440;-62
2021/12/01 01:05:57;;;;;;;12.85;2.55;;;11.00;86.20;;;;;;5108611;28;20031;-62
2021/12/01 01:08:23;;;;;;;8.20;2.22;;;11.00;86.30;;;;;;5104449;28;20786;-62
2021/12/01 01:16:24;;;;;;;11.38;2.63;;;11.10;86.80;;;;;;5100302;28;20043;-62
2021/12/01 01:18:58;;;;;;;10.50;2.95;;;11.10;87.20;;;;;;5103644;28;20039;-62
2021/12/01 01:21:26;;;;;;;12.85;3.92;;;11.10;87.20;;;;;;5104998;28;20538;-62
2021/12/01 01:23:52;;;;;;;12.40;3.42;;;11.10;87.60;;;;;;5095908;28;20089;-62
2021/12/01 01:26:20;;;;;;;12.32;3.53;;;11.10;87.80;;;;;;5097415;28;20027;-62
2021/12/01 01:28:46;;;;;;;11.25;3.33;;;11.10;88.00;;;;;;5111580;28;20498;-62
2021/12/01 01:31:12;;;;;;;10.70;3.22;;;11.10;89.20;;;;;;5104203;28;20016;-62
2021/12/01 01:33:38;;;;;;;12.82;2.95;;;11.10;88.10;;;;;;5103399;28;20028;-62
2021/12/01 01:36:04;;;;;;;9.45;3.38;;;11.10;88.60;;;;;;5097054;28;20028;-62
2021/12/01 01:38:32;;;;;;;12.38;4.05;;;11.10;88.90;;;;;;5108666;28;20077;-62
2021/12/01 01:41:04;;;;;;;8.77;2.90;;;11.10;89.20;;;;;;5099702;28;20065;-62
2021/12/01 01:43:29;;;;;;;9.25;2.55;;;11.10;89.20;;;;;;5097694;28;20032;-62
2021/12/01 01:45:57;;;;;;;10.90;3.13;;;11.10;89.30;;;;;;5099629;28;20098;-62
2021/12/01 01:48:33;;;;;;;11.52;2.92;;;11.00;89.40;;;;;;5108015;28;20051;-62
2021/12/01 01:51:03;;;;;;;11.82;2.63;;;11.10;90.10;;;;;;5107966;28;20043;-62
2021/12/01 01:53:30;;;;;;;11.38;3.17;;;11.10;90.60;;;;;;5092510;28;20026;-62
2021/12/01 01:55:58;;;;;;;9.88;2.50;;;11.00;90.70;;;;;;5107597;28;20028;-62
2021/12/01 01:58:25;;;;;;;9.38;2.80;;;11.00;90.90;;;;;;5099340;28;20127;-62
2021/12/01 02:01:07;;;;;;;9.43;2.75;;;10.90;91.00;;;;;;5101202;28;20036;-62
2021/12/01 02:03:37;;;;;;;9.95;2.65;;;10.90;91.10;;;;;;5098261;28;20020;-62
2021/12/01 02:06:04;;;;;;;11.77;2.90;;;10.90;91.30;;;;;;5095516;28;20050;-62
2021/12/01 02:08:31;;;;;;;11.77;2.42;;;10.90;91.40;;;;;;5094160;28;20032;-62
2021/12/01 02:10:59;;;;;;;11.60;3.40;;;10.90;91.50;;;;;;5105057;28;20039;-62
2021/12/01 02:13:25;;;;;;;7.38;2.45;;;11.00;91.70;;;;;;5104689;28;20058;-62
2021/12/01 02:15:53;;;;;;;8.73;2.35;;;10.90;91.70;;;;;;5100689;28;20099;-62
2021/12/01 02:18:19;;;;;;;9.05;2.20;;;11.00;91.90;;;;;;5096933;28;20039;-62
2021/12/01 02:21:16;;;;;;;12.18;2.40;;;11.00;91.90;;;;;;5107959;28;20032;-62
2021/12/01 02:23:49;;;;;;;10.90;2.50;;;10.90;92.20;;;;;;5094533;28;20032;-62
2021/12/01 02:26:17;;;;;;;8.18;1.90;;;11.00;91.90;;;;;;5093591;28;20024;-62
2021/12/01 02:28:45;;;;;;;8.93;2.17;;;11.00;91.90;;;;;;5106947;28;20606;-62
2021/12/01 02:31:12;;;;;;;6.65;2.05;;;11.00;92.00;;;;;;5097536;28;20071;-62
2021/12/01 02:33:38;;;;;;;9.52;1.95;;;11.00;92.00;;;;;;5096506;28;20028;-62
2021/12/01 02:36:06;;;;;;;5.88;1.50;;;11.00;92.00;;;;;;5095540;28;20481;-62
2021/12/01 02:38:32;;;;;;;5.70;1.35;;;11.00;92.10;;;;;;5099131;28;20036;-62
2021/12/01 02:40:58;;;;;;;5.57;1.58;;;11.10;92.20;;;;;;5104517;28;20031;-62
2021/12/01 02:43:24;;;;;;;6.50;1.50;;;11.00;92.20;;;;;;5095194;28;20043;-62
2021/12/01 02:45:54;;;;;;;6.43;1.70;;;11.10;92.30;;;;;;5095861;28;20039;-62
2021/12/01 02:48:21;;;;;;;8.07;1.60;;;11.10;92.40;;;;;;5104724;28;20031;-62
2021/12/01 02:50:48;;;;;;;5.68;1.30;;;11.10;92.40;;;;;;5093837;28;20031;-62
2021/12/01 02:53:14;;;;;;;7.15;1.65;;;11.10;92.40;;;;;;5103558;28;20123;-62
2021/12/01 02:56:01;;;;;;;5.72;1.30;;;11.10;92.80;;;;;;5100916;28;20181;-62
2021/12/01 02:58:31;;;;;;;4.93;1.70;;;11.10;92.40;;;;;;5104980;28;20114;-62
2021/12/01 03:01:03;;;;;;;4.35;1.10;;;11.20;92.50;;;;;;5106684;28;20020;-62
2021/12/01 03:03:30;;;;;;;5.07;1.42;;;11.20;92.60;;;;;;5106713;28;20111;-62
2021/12/01 03:05:57;;;;;;;4.70;1.10;;;11.20;92.70;;;;;;5106426;28;20023;-62
2021/12/01 03:08:23;;;;;;;4.72;1.38;;;11.20;92.70;;;;;;5102476;28;20180;-62
2021/12/01 03:10:52;;;;;;;5.75;1.80;;;11.20;92.70;;;;;;5106319;28;20026;-62
2021/12/01 03:13:22;;;;;;;4.22;1.38;;;11.20;92.70;;;;;;5106266;28;20034;-62
2021/12/01 03:15:48;;;;;;;5.88;1.38;;;11.20;92.80;;;;;;5102140;28;20020;-62
2021/12/01 03:18:15;;;;;;;4.45;1.40;;;11.20;92.80;;;;;;5096056;28;20426;-62
2021/12/01 03:20:41;;;;;;;3.30;0.70;;;11.30;93.20;;;;;;5092581;28;20148;-62
2021/12/01 03:23:08;;;;;;;5.07;0.70;;;11.30;92.90;;;;;;5108039;28;20073;-62
2021/12/01 03:25:34;;;;;;;3.15;0.68;;;11.30;92.80;;;;;;5109846;28;20114;-62
2021/12/01 03:28:01;;;;;;;2.38;0.60;;;11.30;92.80;;;;;;5110506;28;20061;-62
2021/12/01 03:30:27;;;;;;;2.35;0.60;;;11.30;92.80;;;;;;5107347;28;20098;-62
2021/12/01 03:32:53;;;;;;;2.28;0.52;;;11.30;92.80;;;;;;5099039;28;20036;-62
2021/12/01 03:35:19;;;;;;;1.73;0.50;;;11.30;92.80;;;;;;5095505;28;20605;-62
2021/12/01 03:37:47;;;;;;;2.20;0.60;;;11.40;92.90;;;;;;5113783;28;20027;-62
2021/12/01 03:40:14;;;;;;;1.77;0.60;;;11.40;93.00;;;;;;5105634;28;20069;-62
2021/12/01 03:42:43;;;;;;;1.75;0.55;;;11.40;93.00;;;;;;5110157;28;20024;-62
2021/12/01 03:45:10;;;;;;;3.10;0.63;;;11.40;93.00;;;;;;5109780;28;20039;-62
2021/12/01 03:47:36;;;;;;;1.90;0.60;;;11.50;93.00;;;;;;5106265;28;20494;-62
2021/12/01 03:50:04;;;;;;;2.75;0.50;;;11.50;93.00;;;;;;5097360;28;20072;-62
2021/12/01 03:52:29;;;;;;;2.92;0.63;;;11.50;93.00;;;;;;5104646;28;20073;-62
2021/12/01 03:54:56;;;;;;;3.33;0.63;;;11.50;93.00;;;;;;5102752;28;20021;-62
2021/12/01 03:57:22;;;;;;;5.05;0.90;;;11.50;93.00;;;;;;5101136;28;20042;-62
2021/12/01 03:59:48;;;;;;;2.67;0.50;;;11.50;93.00;;;;;;5110454;28;20051;-62
2021/12/01 04:02:15;;;;;;;1.58;0.50;;;11.50;93.10;;;;;;5096300;28;20582;-62
2021/12/01 04:04:40;;;;;;;3.30;0.60;;;11.50;93.00;;;;;;5111929;28;20030;-62
2021/12/01 04:07:06;;;;;;;2.00;0.50;;;11.50;93.10;;;;;;5101781;28;20044;-62
2021/12/01 04:09:33;;;;;;;1.95;0.50;;;11.50;93.10;;;;;;5107396;28;20024;-62
2021/12/01 04:12:00;;;;;;;2.75;0.50;;;11.50;93.10;;;;;;5109991;28;20023;-62
2021/12/01 04:14:26;;;;;;;1.23;0.40;;;11.50;93.10;;;;;;5107436;28;20034;-62
2021/12/01 04:16:52;;;;;;;3.08;0.50;;;11.50;93.20;;;;;;5094242;28;20028;-62
2021/12/01 04:19:18;;;;;;;3.45;0.82;;;11.60;93.20;;;;;;5098921;28;20376;-62
2021/12/01 04:21:44;;;;;;;2.67;0.50;;;11.60;93.30;;;;;;5098339;28;20046;-62
2021/12/01 04:24:10;;;;;;;1.38;0.43;;;11.60;93.30;;;;;;5106881;28;20172;-62
2021/12/01 04:26:36;;;;;;;2.88;0.47;;;11.60;93.40;;;;;;5110947;28;20020;-62
2021/12/01 04:29:04;;;;;;;2.38;0.60;;;11.70;93.30;;;;;;5109621;28;20031;-62
2021/12/01 04:31:33;;;;;;;2.55;0.60;;;11.60;93.30;;;;;;5110394;28;20027;-62
2021/12/01 04:34:00;;;;;;;1.27;0.50;;;11.70;93.30;;;;;;5101549;28;20028;-62
2021/12/01 04:36:29;;;;;;;1.05;0.47;;;11.70;93.30;;;;;;5097479;28;20032;-62
2021/12/01 04:38:56;;;;;;;2.28;0.50;;;11.70;93.30;;;;;;5105078;28;20032;-62
2021/12/01 04:41:23;;;;;;;1.27;0.40;;;11.70;93.30;;;;;;5107451;28;20034;-63
2021/12/01 04:43:49;;;;;;;1.50;0.40;;;11.70;93.30;;;;;;5111803;28;20050;-62
2021/12/01 04:46:16;;;;;;;1.38;0.50;;;11.70;93.30;;;;;;5099300;28;20038;-62
2021/12/01 04:48:43;;;;;;;1.25;0.35;;;11.70;93.30;;;;;;5101875;28;20034;-62
2021/12/01 04:51:09;;;;;;;2.03;0.40;;;11.70;93.30;;;;;;5108224;28;20117;-62
2021/12/01 04:53:35;;;;;;;1.00;0.50;;;11.70;93.30;;;;;;5108593;28;20415;-62
2021/12/01 04:56:01;;;;;;;1.00;0.40;;;11.70;93.30;;;;;;5103887;28;20015;-62
2021/12/01 04:58:28;;;;;;;1.63;0.60;;;11.70;93.30;;;;;;5107852;28;20410;-62
2021/12/01 05:00:54;;;;;;;1.25;0.55;;;11.70;93.30;;;;;;5109117;28;20023;-62
2021/12/01 05:03:20;;;;;;;3.72;0.80;;;11.70;93.30;;;;;;5106501;28;20490;-62
2021/12/01 05:05:46;;;;;;;2.55;0.98;;;11.70;93.30;;;;;;5095714;28;20031;-62
2021/12/01 05:08:11;;;;;;;2.20;0.80;;;11.70;93.30;;;;;;5107961;28;20023;-61
2021/12/01 05:10:37;;;;;;;3.95;0.75;;;11.70;93.20;;;;;;5108217;27;20024;-61
2021/12/01 05:13:03;;;;;;;1.23;0.50;;;11.70;92.80;;;;;;5108204;28;20027;-62
2021/12/01 05:15:28;;;;;;;2.25;0.50;;;11.60;92.50;;;;;;5104248;28;20407;-62
2021/12/01 05:17:54;;;;;;;2.45;0.68;;;11.60;92.30;;;;;;5095885;28;20127;-61
2021/12/01 05:20:20;;;;;;;4.53;0.70;;;11.50;92.20;;;;;;5096196;28;20071;-62
2021/12/01 05:22:46;;;;;;;4.95;0.80;;;11.30;92.20;;;;;;5096749;28;20080;-62
2021/12/01 05:25:11;;;;;;;3.72;0.70;;;11.20;92.20;;;;;;5108107;28;20019;-62
2021/12/01 05:27:37;;;;;;;4.93;0.70;;;11.10;92.20;;;;;;5108115;28;20023;-62
2021/12/01 05:30:04;;;;;;;4.13;0.88;;;11.00;92.20;;;;;;5108112;28;20020;-62
2021/12/01 05:32:31;;;;;;;4.45;0.60;;;10.90;92.10;;;;;;5094583;28;20527;-61
2021/12/01 05:34:57;;;;;;;6.72;1.00;;;10.80;92.20;;;;;;5097326;28;20024;-63
2021/12/01 05:37:23;;;;;;;4.35;0.80;;;10.80;92.30;;;;;;5109769;27;20027;-63
2021/12/01 05:39:49;;;;;;;4.20;0.85;;;10.80;92.40;;;;;;5105478;27;20375;-63
2021/12/01 05:42:16;;;;;;;8.63;1.17;;;10.70;92.40;;;;;;5114308;27;20031;-63
2021/12/01 05:44:44;;;;;;;7.43;0.88;;;10.60;92.30;;;;;;5117685;27;20478;-63
2021/12/01 05:47:10;;;;;;;5.68;0.90;;;10.50;92.40;;;;;;5093071;28;20050;-63
2021/12/01 05:49:44;;;;;;;4.43;0.82;;;10.50;92.70;;;;;;5106404;27;20495;-63
2021/12/01 05:52:12;;;;;;;6.70;0.82;;;10.50;92.90;;;;;;5109042;27;20397;-64
2021/12/01 05:54:39;;;;;;;6.05;0.90;;;10.50;93.10;;;;;;5107553;27;20041;-64
2021/12/01 05:57:05;;;;;;;7.35;1.00;;;10.50;93.20;;;;;;5118051;27;20031;-63
2021/12/01 05:59:32;;;;;;;8.20;0.88;;;10.60;93.10;;;;;;5110318;27;20376;-63
2021/12/01 06:02:01;;;;;;;7.40;1.00;;;10.60;92.90;;;;;;5096093;28;20044;-63
2021/12/01 06:04:28;;;;;;;9.65;1.33;;;10.70;92.70;;;;;;5112483;27;20399;-64
2021/12/01 06:06:54;;;;;;;13.27;1.38;;;10.70;92.50;;;;;;5110486;27;20051;-63
2021/12/01 06:09:20;;;;;;;14.68;1.27;;;10.70;91.90;;;;;;5114505;27;20534;-64
2021/12/01 06:11:47;;;;;;;12.13;1.33;;;10.60;91.50;;;;;;5105837;28;20069;-63
2021/12/01 06:14:15;;;;;;;9.70;1.33;;;10.50;91.20;;;;;;5104695;28;20513;-64
2021/12/01 06:16:42;;;;;;;12.30;1.70;;;10.50;90.90;;;;;;5108180;28;20031;-64
2021/12/01 06:19:08;;;;;;;10.13;1.63;;;10.40;91.00;;;;;;5110043;27;20112;-64
2021/12/01 06:21:34;;;;;;;11.05;1.63;;;10.40;91.00;;;;;;5109854;27;20451;-64
2021/12/01 06:24:00;;;;;;;10.52;1.58;;;10.40;90.90;;;;;;5105007;28;20031;-64
2021/12/01 06:26:25;;;;;;;17.15;1.70;;;10.30;90.70;;;;;;5106355;27;20517;-63
2021/12/01 06:28:51;;;;;;;15.45;1.73;;;10.20;90.60;;;;;;5113017;27;20020;-63
2021/12/01 06:31:17;;;;;;;17.67;1.60;;;10.20;90.60;;;;;;5100630;27;20035;-64
2021/12/01 06:33:43;;;;;;;13.57;2.17;;;10.20;91.00;;;;;;5102614;28;20099;-63
2021/12/01 06:36:09;;;;;;;15.13;2.15;;;10.10;90.50;;;;;;5106006;28;20024;-63
2021/12/01 06:38:35;;;;;;;13.35;1.63;;;10.10;91.00;;;;;;5092027;28;20046;-63
2021/12/01 06:41:01;;;;;;;12.43;1.60;;;10.00;90.50;;;;;;5109425;27;20026;-64
2021/12/01 06:43:26;;;;;;;14.25;2.00;;;10.00;90.50;;;;;;5104618;28;20039;-64
2021/12/01 06:45:52;;;;;;;14.73;1.92;;;10.00;90.40;;;;;;5105408;28;20491;-63
2021/12/01 06:48:18;;;;;;;16.83;2.13;;;10.00;90.40;;;;;;5110256;27;20364;-64
2021/12/01 06:50:45;;;;;;;13.48;1.77;;;10.00;90.40;;;;;;5113957;27;20032;-63
2021/12/01 06:53:11;;;;;;;13.05;1.45;;;9.90;90.40;;;;;;5113778;27;20031;-64
2021/12/01 06:55:37;;;;;;;12.40;1.63;;;9.80;90.40;;;;;;5109887;27;20148;-63
2021/12/01 06:58:02;;;;;;;15.25;1.80;;;9.80;90.90;;;;;;5096285;28;20128;-64
2021/12/01 07:00:30;;;;;;;22.33;1.75;;;9.70;90.60;;;;;;5093321;28;20433;-64
2021/12/01 07:02:56;;;;;;;15.50;1.92;;;9.60;90.70;;;;;;5093995;28;20051;-64
2021/12/01 07:05:22;;;;;;;14.18;1.65;;;9.60;90.80;;;;;;5092095;28;20027;-64
2021/12/01 07:07:48;;;;;;;19.25;2.17;;;9.50;90.80;;;;;;5091459;28;20444;-64
2021/12/01 07:10:15;;;;;;;14.02;1.67;;;9.40;91.00;;;;;;5101707;28;20054;-63
2021/12/01 07:12:43;;;;;;;15.30;2.08;;;9.40;91.10;;;;;;5099831;28;20024;-64
2021/12/01 07:15:11;;;;;;;21.30;2.60;;;9.40;91.20;;;;;;5093322;28;20035;-64
2021/12/01 07:17:37;;;;;;;18.75;2.70;;;9.40;91.20;;;;;;5093348;28;20038;-64
2021/12/01 07:20:05;;;;;;;15.55;2.10;;;9.40;91.20;;;;;;5089939;28;20099;-64
2021/12/01 07:22:31;;;;;;;19.85;2.50;;;9.30;91.20;;;;;;5093108;28;20081;-63
2021/12/01 07:24:57;;;;;;;20.98;2.42;;;9.20;91.30;;;;;;5101970;28;20028;-63
2021/12/01 07:27:23;;;;;;;15.75;1.90;;;9.20;91.30;;;;;;5102907;28;20107;-63
2021/12/01 07:29:49;;;;;;;19.15;2.10;;;9.10;91.30;;;;;;5091222;28;20024;-64
2021/12/01 07:32:15;;;;;;;11.80;2.17;;;9.10;91.50;;;;;;5107735;28;20020;-64
2021/12/01 07:34:42;;;;;;;16.42;2.00;;;9.10;91.50;;;;;;5093089;28;20024;-63
2021/12/01 07:37:12;;;;;;;15.02;2.22;;;9.10;91.50;;;;;;5092828;28;20024;-64
2021/12/01 07:39:39;;;;;;;14.98;2.25;;;9.10;91.40;;;;;;5096195;28;20065;-64
2021/12/01 07:42:06;;;;;;;22.42;2.10;;;9.10;91.40;;;;;;5103902;28;20035;-63
2021/12/01 07:44:32;;;;;;;20.52;2.63;;;9.20;91.30;;;;;;5093679;28;20024;-63
2021/12/01 07:46:58;;;;;;;25.00;3.00;;;9.20;91.20;;;;;;5090652;28;20020;-63
2021/12/01 07:49:24;;;;;;;14.52;1.90;;;9.30;91.10;;;;;;5093026;28;20463;-64
2021/12/01 07:51:50;;;;;;;16.48;2.20;;;9.40;91.00;;;;;;5093274;28;20457;-64
2021/12/01 07:54:16;;;;;;;17.33;2.38;;;9.50;90.90;;;;;;5096187;28;20080;-64
2021/12/01 07:56:42;;;;;;;16.95;2.03;;;9.50;90.70;;;;;;5104819;28;20051;-63
2021/12/01 07:59:10;;;;;;;14.52;2.33;;;9.60;90.50;;;;;;5093266;28;20028;-64
2021/12/01 08:01:36;;;;;;;18.60;2.38;;;9.70;90.40;;;;;;5092618;28;20718;-64
2021/12/01 08:04:03;;;;;;;20.63;2.35;;;9.80;90.20;;;;;;5093314;28;20060;-64
2021/12/01 08:06:32;;;;;;;15.48;2.35;;;10.00;89.70;;;;;;5092728;28;20528;-64
2021/12/01 08:09:00;;;;;;;19.33;2.42;;;10.00;89.00;;;;;;5105216;28;20108;-63
2021/12/01 08:11:26;;;;;;;19.52;2.45;;;10.20;88.60;;;;;;5107761;28;20035;-64
2021/12/01 08:13:52;;;;;;;13.50;1.95;;;10.40;88.00;;;;;;5108473;28;20098;-64
2021/12/01 08:16:18;;;;;;;19.55;2.63;;;10.60;86.90;;;;;;5098053;28;20141;-64
2021/12/01 08:18:43;;;;;;;16.20;2.13;;;11.40;85.10;;;;;;5096416;28;20102;-64
2021/12/01 08:21:09;;;;;;;24.23;2.47;;;11.60;83.80;;;;;;5096638;28;20429;-64
2021/12/01 08:23:35;;;;;;;19.35;2.35;;;11.50;83.60;;;;;;5097357;28;20504;-64
2021/12/01 08:26:01;;;;;;;21.50;2.40;;;11.30;84.20;;;;;;5111147;27;20034;-64
2021/12/01 08:28:27;;;;;;;18.80;2.45;;;11.20;84.60;;;;;;5097185;28;20028;-64
2021/12/01 08:30:53;;;;;;;22.50;2.60;;;11.10;84.90;;;;;;5098883;28;20080;-64
2021/12/01 08:33:19;;;;;;;18.55;2.10;;;11.00;85.10;;;;;;5096697;28;20024;-64
2021/12/01 08:35:44;;;;;;;20.17;3.10;;;11.00;85.30;;;;;;5093756;28;20025;-64
2021/12/01 08:38:10;;;;;;;19.35;2.28;;;10.90;85.40;;;;;;5110834;28;20027;-64
2021/12/01 08:40:36;;;;;;;16.80;2.45;;;10.90;85.50;;;;;;5109368;28;20020;-64
2021/12/01 08:43:02;;;;;;;21.35;2.50;;;11.00;85.50;;;;;;5104599;27;20035;-64
2021/12/01 08:45:28;;;;;;;22.75;3.03;;;11.30;85.10;;;;;;5107490;27;20487;-64
2021/12/01 08:47:54;;;;;;;17.08;2.50;;;11.30;84.70;;;;;;5109185;28;20034;-64
2021/12/01 08:50:20;;;;;;;24.27;2.67;;;11.30;84.90;;;;;;5116841;27;20015;-63
2021/12/01 08:52:47;;;;;;;15.85;2.50;;;11.30;85.10;;;;;;5097700;28;20058;-63
2021/12/01 08:55:13;;;;;;;21.55;2.60;;;11.40;85.10;;;;;;5106534;28;20035;-63
2021/12/01 08:57:39;;;;;;;23.63;2.50;;;11.40;84.70;;;;;;5104045;28;20038;-63
2021/12/01 09:00:07;;;;;;;16.45;2.50;;;11.50;84.30;;;;;;5097650;28;20044;-63
2021/12/01 09:02:33;;;;;;;19.67;2.55;;;11.80;83.60;;;;;;5109419;28;20395;-63
2021/12/01 09:04:59;;;;;;;18.05;2.40;;;11.90;82.60;;;;;;5097453;28;20085;-63
2021/12/01 09:07:25;;;;;;;23.40;2.85;;;11.80;82.60;;;;;;5097145;28;20422;-63
2021/12/01 09:09:51;;;;;;;16.17;2.83;;;11.70;82.60;;;;;;5097364;28;20039;-63
2021/12/01 09:12:18;;;;;;;17.70;3.17;;;11.60;83.10;;;;;;5097697;28;20024;-63
2021/12/01 09:14:44;;;;;;;20.92;2.75;;;11.50;83.10;;;;;;5095011;28;20024;-63
2021/12/01 09:17:12;;;;;;;31.60;10.77;;;11.50;83.10;;;;;;5095366;28;20059;-63
2021/12/01 09:19:39;;;;;;;21.10;3.00;;;11.60;83.10;;;;;;5112170;28;20020;-63
2021/12/01 09:22:05;;;;;;;24.38;2.72;;;11.60;82.80;;;;;;5100076;28;20024;-63
2021/12/01 09:24:31;;;;;;;22.17;2.83;;;11.80;82.50;;;;;;5096822;28;20421;-63
2021/12/01 09:26:56;;;;;;;15.27;2.10;;;12.00;81.70;;;;;;5104284;28;20035;-63
2021/12/01 09:29:22;;;;;;;20.58;2.92;;;12.10;81.50;;;;;;5093617;28;20126;-63
2021/12/01 09:31:48;;;;;;;17.38;2.45;;;12.40;80.60;;;;;;5111310;28;20028;-63
2021/12/01 09:34:15;;;;;;;18.75;2.70;;;12.40;80.40;;;;;;5108073;28;20077;-63
2021/12/01 09:36:41;;;;;;;18.40;2.60;;;12.50;80.00;;;;;;5103331;28;20098;-63
2021/12/01 09:39:06;;;;;;;19.13;3.17;;;12.50;79.60;;;;;;5095841;27;20473;-64
2021/12/01 09:41:33;;;;;;;18.42;2.78;;;12.70;79.20;;;;;;5092824;28;20016;-63
2021/12/01 09:43:59;;;;;;;15.30;2.72;;;12.80;78.50;;;;;;5116333;27;20051;-64
2021/12/01 09:46:27;;;;;;;18.20;2.22;;;12.90;77.50;;;;;;5110120;27;20099;-64
2021/12/01 09:48:53;;;;;;;21.40;3.10;;;12.90;77.00;;;;;;5105730;27;20406;-63
2021/12/01 09:51:20;;;;;;;12.25;2.33;;;13.00;76.00;;;;;;5114962;27;20027;-64
2021/12/01 09:53:46;;;;;;;21.70;3.20;;;13.20;75.40;;;;;;5093704;28;20039;-63
2021/12/01 09:56:12;;;;;;;16.50;3.05;;;13.30;75.00;;;;;;5108319;28;20026;-63
2021/12/01 09:58:42;;;;;;;12.48;2.50;;;13.40;73.40;;;;;;5096574;28;20035;-63
2021/12/01 10:01:12;;;;;;;18.05;3.00;;;13.90;71.90;;;;;;5105080;28;20030;-63
2021/12/01 10:03:40;;;;;;;18.35;3.00;;;14.30;70.50;;;;;;5103371;28;20040;-64
2021/12/01 10:06:10;;;;;;;15.75;2.55;;;15.30;68.20;;;;;;5096388;28;20114;-61
2021/12/01 10:08:42;;;;;;;18.95;7.10;;;15.40;65.30;;;;;;5100677;28;20056;-61
2021/12/01 10:11:16;;;;;;;17.02;3.28;;;17.10;63.90;;;;;;5093953;28;20101;-61
2021/12/01 10:13:44;;;;;;;15.30;2.72;;;17.60;58.80;;;;;;5096378;28;20027;-62
2021/12/01 10:16:13;;;;;;;17.92;4.13;;;17.00;58.60;;;;;;5105163;28;20059;-62
2021/12/01 10:18:41;;;;;;;16.83;2.40;;;17.30;60.00;;;;;;5092325;28;20403;-62
2021/12/01 10:21:18;;;;;;;15.45;2.95;;;17.00;59.20;;;;;;5107471;28;20055;-62
2021/12/01 10:23:56;;;;;;;15.65;2.40;;;16.40;58.90;;;;;;5093779;28;20031;-61
2021/12/01 10:26:26;;;;;;;17.20;2.25;;;15.40;62.00;;;;;;5092786;28;20024;-61
2021/12/01 10:28:54;;;;;;;13.75;1.70;;;14.80;63.40;;;;;;5096193;28;20027;-61
2021/12/01 10:31:47;;;;;;;11.70;2.03;;;14.20;65.30;;;;;;5106459;28;20041;-61
2021/12/01 10:34:43;;;;;;;16.02;2.35;;;13.70;68.00;;;;;;5097313;28;20035;-61
2021/12/01 10:37:29;;;;;;;13.85;2.20;;;13.20;69.70;;;;;;5094309;28;20091;-61
2021/12/01 10:40:10;;;;;;;11.55;1.58;;;13.10;70.90;;;;;;5095799;28;20040;-61
2021/12/01 10:42:58;;;;;;;13.07;1.90;;;12.90;71.10;;;;;;5096012;28;20116;-61
2021/12/01 10:45:27;;;;;;;13.00;1.92;;;12.70;71.40;;;;;;5104005;28;20094;-61
2021/12/01 10:47:53;;;;;;;13.27;2.30;;;12.90;71.10;;;;;;5094385;28;20036;-61
2021/12/01 10:50:22;;;;;;;14.65;2.08;;;13.00;70.20;;;;;;5092405;28;20023;-61
2021/12/01 10:53:00;;;;;;;9.73;1.90;;;13.00;69.90;;;;;;5095784;28;20028;-61
2021/12/01 10:55:27;;;;;;;13.57;2.10;;;12.90;70.00;;;;;;5095610;28;20063;-61
2021/12/01 10:57:59;;;;;;;14.25;2.08;;;12.70;70.30;;;;;;5095339;28;20040;-61
2021/12/01 11:00:28;;;;;;;12.10;4.25;;;13.00;70.50;;;;;;5098409;28;20043;-61
2021/12/01 11:03:09;;;;;;;13.43;4.88;;;15.90;65.80;;;;;;5106062;28;20032;-62
2021/12/01 11:05:38;;;;;;;12.77;4.72;;;18.90;57.20;;;;;;5103954;28;20023;-62
2021/12/01 11:08:27;;;;;;;15.50;5.35;;;21.00;51.70;;;;;;5090081;28;20080;-62
2021/12/01 11:11:08;;;;;;;14.57;7.25;;;22.90;45.60;;;;;;5091371;28;20028;-63
2021/12/01 11:13:35;;;;;;;15.30;6.13;;;24.10;42.70;;;;;;5096142;28;20102;-62
2021/12/01 11:16:03;;;;;;;14.60;7.63;;;25.00;40.50;;;;;;5097432;28;20032;-62
2021/12/01 11:18:32;;;;;;;15.88;6.93;;;25.80;37.70;;;;;;5093771;28;20115;-62
2021/12/01 11:21:13;;;;;;;14.75;7.25;;;26.40;37.10;;;;;;5074705;28;20055;-63
2021/12/01 11:24:02;;;;;;;12.18;7.65;;;27.00;35.90;;;;;;5094106;28;20023;-63
2021/12/01 11:26:30;;;;;;;13.70;4.70;;;27.50;33.70;;;;;;5092581;28;20023;-63
2021/12/01 11:28:58;;;;;;;12.23;3.92;;;28.10;32.90;;;;;;5111114;28;20024;-62
2021/12/01 11:31:27;;;;;;;15.25;3.30;;;28.50;32.00;;;;;;5108242;28;20031;-62
2021/12/01 11:33:55;;;;;;;13.30;2.80;;;28.70;31.40;;;;;;5102946;28;20035;-63
2021/12/01 11:36:27;;;;;;;14.82;3.08;;;26.90;32.40;;;;;;5111764;28;20034;-63
2021/12/01 11:38:59;;;;;;;17.23;3.08;;;24.60;36.00;;;;;;5104860;28;20092;-62
2021/12/01 11:41:28;;;;;;;14.32;2.60;;;22.60;39.30;;;;;;5098065;28;20105;-62
2021/12/01 11:43:55;;;;;;;13.88;2.42;;;20.70;41.70;;;;;;5099308;28;20379;-62
2021/12/01 11:46:21;;;;;;;17.92;2.67;;;19.30;45.00;;;;;;5104392;28;20098;-62
2021/12/01 11:48:51;;;;;;;15.35;2.70;;;18.30;47.90;;;;;;5097733;28;20112;-62
2021/12/01 11:51:17;;;;;;;16.42;2.50;;;17.70;49.40;;;;;;5104943;28;20490;-62
2021/12/01 11:54:06;;;;;;;13.63;2.53;;;16.90;50.30;;;;;;5095438;28;20031;-62
2021/12/01 11:56:36;;;;;;;10.60;2.17;;;16.20;52.10;;;;;;5093743;28;20475;-62
2021/12/01 11:59:04;;;;;;;14.07;2.60;;;18.30;51.00;;;;;;5097891;28;20437;-62
2021/12/01 12:01:30;;;;;;;13.18;2.42;;;21.00;45.10;;;;;;5098533;28;20471;-62
2021/12/01 12:04:02;;;;;;;13.60;2.30;;;22.80;40.30;;;;;;5104022;28;20127;-62
2021/12/01 12:06:36;;;;;;;11.88;2.28;;;20.80;41.50;;;;;;5103669;28;20132;-62
2021/12/01 12:09:10;;;;;;;14.65;2.60;;;19.50;44.30;;;;;;5106699;27;20073;-62
2021/12/01 12:11:59;;;;;;;11.25;1.95;;;18.20;46.90;;;;;;5107478;27;20062;-62
2021/12/01 12:14:38;;;;;;;12.10;2.05;;;17.10;50.30;;;;;;5111701;27;20048;-61
2021/12/01 12:17:35;;;;;;;16.70;2.63;;;16.30;52.90;;;;;;5109997;28;20096;-63
2021/12/01 12:20:24;;;;;;;14.23;2.40;;;15.70;54.00;;;;;;5114469;27;20035;-62
2021/12/01 12:22:50;;;;;;;17.50;2.60;;;15.20;55.70;;;;;;5098924;28;20082;-62
2021/12/01 12:25:46;;;;;;;13.82;2.13;;;14.60;58.10;;;;;;5109837;27;20836;-62
2021/12/01 12:28:38;;;;;;;12.52;2.03;;;14.10;59.80;;;;;;5102948;27;20050;-62
2021/12/01 12:31:27;;;;;;;11.45;1.85;;;13.80;61.20;;;;;;5111447;27;20043;-62
2021/12/01 12:34:03;;;;;;;10.50;1.90;;;13.50;62.00;;;;;;5105857;27;20083;-63
2021/12/01 12:36:49;;;;;;;9.85;2.33;;;13.20;63.40;;;;;;5098421;28;20058;-63
2021/12/01 12:39:21;;;;;;;12.23;2.10;;;13.10;64.50;;;;;;5112038;27;20043;-63
2021/12/01 12:42:04;;;;;;;12.18;1.92;;;12.90;65.70;;;;;;5106979;27;20023;-61
2021/12/01 12:44:45;;;;;;;11.48;2.05;;;12.80;67.50;;;;;;5111417;27;20436;-62
2021/12/01 12:47:19;;;;;;;11.10;1.52;;;12.90;67.10;;;;;;5105640;27;20395;-62
2021/12/01 12:49:52;;;;;;;7.38;1.40;;;12.90;66.00;;;;;;5110017;27;20028;-62
2021/12/01 12:52:31;;;;;;;9.20;1.85;;;12.80;66.40;;;;;;5106708;27;20031;-62
2021/12/01 12:55:01;;;;;;;10.52;1.30;;;12.70;67.50;;;;;;5108719;27;20069;-61